Time;durP1;ratioP1;P1;durP2;ratioP2;P2;SDS_P1;SDS_P2;PMS_P1;PMS_P2;Temp;Humidity;BMP_temperature;BMP_pressure;BME280_temperature;BME280_humidity;BME280_pressure;Samples;Min_cycle;Max_cycle;Signal;HPM_P1;HPM_P2
2022/12/24 00:01:04;;;;;;;1.70;1.20;;;;;;;7.93;100.00;95431.06;5092783;28;20424;-76
2022/12/24 00:03:32;;;;;;;3.97;1.40;;;;;;;7.94;100.00;95439.72;5062372;28;20464;-76
2022/12/24 00:06:04;;;;;;;2.70;1.60;;;;;;;7.77;100.00;95417.03;5074250;28;20458;-76
2022/12/24 00:08:30;;;;;;;2.00;1.27;;;;;;;7.63;100.00;95398.19;5064549;28;20539;-76
2022/12/24 00:10:57;;;;;;;1.77;1.67;;;;;;;7.90;100.00;95433.59;5064816;28;20924;-75
2022/12/24 00:13:24;;;;;;;1.77;1.60;;;;;;;7.83;100.00;95439.38;5063823;28;20444;-77
2022/12/24 00:15:51;;;;;;;2.40;1.27;;;;;;;7.72;100.00;95436.44;5071936;28;21011;-76
2022/12/24 00:18:18;;;;;;;5.10;1.20;;;;;;;7.57;100.00;95416.03;5071918;28;20448;-75
2022/12/24 00:20:48;;;;;;;2.83;1.53;;;;;;;7.66;100.00;95429.88;5045609;28;20493;-76
2022/12/24 00:23:16;;;;;;;3.20;1.40;;;;;;;7.95;100.00;95478.84;5056958;28;20503;-77
2022/12/24 00:25:46;;;;;;;4.73;1.33;;;;;;;7.93;100.00;95488.19;5075189;28;20899;-76
2022/12/24 00:28:13;;;;;;;4.70;1.40;;;;;;;7.97;100.00;95483.78;5043858;28;20433;-75
2022/12/24 00:30:42;;;;;;;2.20;0.87;;;;;;;7.93;100.00;95490.81;5066282;28;20443;-75
2022/12/24 00:33:09;;;;;;;2.50;2.17;;;;;;;7.93;100.00;95496.84;5068455;28;20460;-75
2022/12/24 00:35:38;;;;;;;4.23;1.83;;;;;;;7.85;100.00;95495.09;5073535;28;20444;-76
2022/12/24 00:38:08;;;;;;;11.17;2.63;;;;;;;7.88;100.00;95494.44;5075621;28;20456;-76
2022/12/24 00:40:35;;;;;;;5.33;2.03;;;;;;;7.65;100.00;95486.19;5074971;28;20459;-76
2022/12/24 00:43:02;;;;;;;2.53;1.80;;;;;;;7.62;100.00;95459.78;5076166;28;20459;-77
2022/12/24 00:45:29;;;;;;;2.50;1.50;;;;;;;7.33;100.00;95426.53;5049081;28;20440;-77
2022/12/24 00:47:56;;;;;;;2.20;1.47;;;;;;;7.77;100.00;95497.84;5074551;28;20425;-77
2022/12/24 00:50:25;;;;;;;8.37;2.20;;;;;;;7.38;100.00;95439.50;5066440;28;20455;-77
2022/12/24 00:52:52;;;;;;;4.37;2.00;;;;;;;7.65;100.00;95504.63;5072224;28;20487;-77
2022/12/24 00:55:18;;;;;;;6.47;1.40;;;;;;;7.32;100.00;95451.31;5073567;28;20763;-77
2022/12/24 00:57:45;;;;;;;10.03;3.20;;;;;;;7.32;100.00;95467.06;5074657;28;20971;-79
2022/12/24 01:00:14;;;;;;;7.47;2.10;;;;;;;7.33;100.00;95489.63;5086715;28;20477;-76
2022/12/24 01:02:41;;;;;;;7.57;1.80;;;;;;;7.31;100.00;95494.47;5080600;28;20502;-78
2022/12/24 01:05:10;;;;;;;7.10;1.93;;;;;;;7.43;100.00;95509.50;5081236;28;20479;-78
2022/12/24 01:07:43;;;;;;;4.60;2.10;;;;;;;7.28;100.00;95514.28;5092746;28;20448;-77
2022/12/24 01:10:12;;;;;;;5.70;1.77;;;;;;;7.34;100.00;95520.09;5062224;28;20462;-78
2022/12/24 01:12:39;;;;;;;3.00;2.10;;;;;;;7.35;100.00;95525.06;5068676;28;20499;-77
2022/12/24 01:15:07;;;;;;;8.00;2.40;;;;;;;7.37;100.00;95530.00;5068038;28;20960;-76
2022/12/24 01:17:34;;;;;;;4.97;2.63;;;;;;;7.32;100.00;95535.44;5060880;28;20428;-77
2022/12/24 01:20:02;;;;;;;6.83;1.90;;;;;;;7.27;100.00;95538.28;5076506;28;20515;-76
2022/12/24 01:22:29;;;;;;;7.33;1.80;;;;;;;7.19;100.00;95533.84;5045596;28;20460;-76
2022/12/24 01:24:56;;;;;;;7.53;2.33;;;;;;;6.98;100.00;95503.13;5063920;28;20879;-77
2022/12/24 01:27:23;;;;;;;2.53;1.30;;;;;;;7.00;100.00;95518.56;5075666;28;20471;-77
2022/12/24 01:29:49;;;;;;;3.57;2.03;;;;;;;7.20;100.00;95544.03;5084693;28;20503;-77
2022/12/24 01:32:16;;;;;;;7.07;2.03;;;;;;;7.11;100.00;95544.13;5079950;28;21003;-76
2022/12/24 01:34:43;;;;;;;2.87;1.90;;;;;;;7.02;100.00;95540.81;5074040;28;20467;-76
2022/12/24 01:37:10;;;;;;;5.00;2.30;;;;;;;7.20;100.00;95565.06;5076952;28;20436;-77
2022/12/24 01:39:36;;;;;;;9.67;2.50;;;;;;;6.93;100.00;95540.09;5062900;28;20461;-77
2022/12/24 01:45:41;;;;;;;4.47;1.97;;;;;;;7.17;100.00;95570.22;5069396;28;21007;-76
2022/12/24 01:48:41;;;;;;;7.20;3.60;;;;;;;7.03;100.00;95554.72;5053967;28;20524;-76
2022/12/24 01:51:36;;;;;;;7.53;2.37;;;;;;;7.25;100.00;95580.66;5074245;28;20470;-76
2022/12/24 01:54:08;;;;;;;6.50;1.40;;;;;;;7.32;100.00;95580.13;5050023;28;20525;-76
2022/12/24 01:56:38;;;;;;;2.93;1.63;;;;;;;7.18;100.00;95574.38;5061406;28;20436;-76
2022/12/24 01:59:12;;;;;;;10.83;2.67;;;;;;;7.32;100.00;95590.66;5077069;28;20460;-76
2022/12/24 02:01:42;;;;;;;3.50;1.97;;;;;;;7.37;100.00;95587.84;5085195;28;20432;-77
2022/12/24 02:04:17;;;;;;;8.10;1.93;;;;;;;7.28;100.00;95574.00;5054853;28;20469;-77
2022/12/24 02:06:48;;;;;;;5.20;2.40;;;;;;;7.45;100.00;95602.75;5077953;28;20431;-77
2022/12/24 02:09:15;;;;;;;4.20;1.50;;;;;;;7.43;100.00;95598.91;5075301;28;20644;-77
2022/12/24 02:11:43;;;;;;;6.70;2.63;;;;;;;7.37;100.00;95587.84;5054774;28;20844;-77
2022/12/24 02:14:11;;;;;;;9.53;2.20;;;;;;;7.49;100.00;95611.56;5076051;28;20470;-77
2022/12/24 02:17:06;;;;;;;9.80;2.50;;;;;;;7.31;100.00;95591.75;5075564;28;20432;-77
2022/12/24 02:20:05;;;;;;;8.70;2.07;;;;;;;7.54;100.00;95611.34;5077685;28;20448;-77
2022/12/24 02:23:17;;;;;;;10.43;2.43;;;;;;;7.54;100.00;95616.59;5064911;28;20520;-77
2022/12/24 02:25:53;;;;;;;6.10;1.73;;;;;;;7.52;100.00;95625.91;5069021;28;20434;-75
2022/12/24 02:28:25;;;;;;;7.13;2.57;;;;;;;7.53;100.00;95624.81;5081572;28;20432;-75
2022/12/24 02:31:05;;;;;;;11.37;2.63;;;;;;;7.28;100.00;95590.53;5061000;28;20432;-76
2022/12/24 02:33:44;;;;;;;8.20;2.30;;;;;;;7.42;100.00;95629.69;5076506;28;20487;-76
2022/12/24 02:36:28;;;;;;;8.30;3.13;;;;;;;7.34;100.00;95636.56;5081553;28;20428;-77
2022/12/24 02:39:08;;;;;;;4.33;2.30;;;;;;;7.44;100.00;95643.28;5060122;28;20464;-77
2022/12/24 02:44:32;;;;;;;5.70;1.93;;;;;;;7.17;100.00;95604.38;5074195;28;20417;-75
2022/12/24 02:47:01;;;;;;;4.13;2.17;;;;;;;7.18;100.00;95611.19;5068456;28;20459;-77
2022/12/24 02:49:28;;;;;;;6.03;3.00;;;;;;;7.28;100.00;95637.84;5075164;28;20413;-78
2022/12/24 02:51:55;;;;;;;7.83;2.60;;;;;;;7.30;100.00;95638.28;5049484;28;20819;-78
2022/12/24 02:54:22;;;;;;;4.30;1.87;;;;;;;7.24;100.00;95626.44;5058536;28;20452;-76
2022/12/24 02:57:20;;;;;;;5.60;2.13;;;;;;;7.54;100.00;95671.84;5060757;28;20486;-76
2022/12/24 03:00:00;;;;;;;8.13;2.20;;;;;;;7.39;100.00;95656.66;5049851;28;20449;-75
2022/12/24 03:02:26;;;;;;;7.00;2.20;;;;;;;7.54;100.00;95665.81;5068658;28;20454;-77
2022/12/24 03:04:56;;;;;;;3.73;2.00;;;;;;;7.57;100.00;95670.41;5060321;28;20432;-77
2022/12/24 03:07:37;;;;;;;8.63;2.90;;;;;;;7.61;100.00;95664.19;5067348;28;20436;-75
2022/12/24 03:10:10;;;;;;;3.30;1.77;;;;;;;7.65;100.00;95659.81;5071259;28;20483;-75
2022/12/24 03:13:04;;;;;;;8.20;2.53;;;;;;;7.63;100.00;95675.16;5074434;28;20509;-76
2022/12/24 03:15:32;;;;;;;15.40;5.30;;;;;;;7.45;100.00;95662.47;5054465;28;20977;-76
2022/12/24 03:18:02;;;;;;;5.40;2.57;;;;;;;7.59;100.00;95687.41;5054154;28;20447;-77
2022/12/24 03:20:45;;;;;;;12.80;2.60;;;;;;;7.53;100.00;95693.97;5065482;28;20921;-77
2022/12/24 03:23:12;;;;;;;6.20;2.33;;;;;;;7.30;100.00;95663.81;5067194;28;20525;-77
2022/12/24 03:25:44;;;;;;;5.73;2.20;;;;;;;7.34;100.00;95676.00;5063144;28;20514;-77
2022/12/24 03:28:15;;;;;;;8.33;2.60;;;;;;;7.46;100.00;95692.94;5072786;28;20558;-77
2022/12/24 03:30:44;;;;;;;8.70;2.30;;;;;;;7.50;100.00;95722.78;5045549;28;20431;-76
2022/12/24 03:33:12;;;;;;;8.07;2.37;;;;;;;7.20;100.00;95674.72;5073630;28;20451;-76
2022/12/24 03:35:39;;;;;;;3.13;2.83;;;;;;;7.44;100.00;95713.53;5064203;28;20448;-76
2022/12/24 03:38:06;;;;;;;6.20;2.23;;;;;;;7.30;100.00;95698.78;5068003;28;21168;-76
2022/12/24 03:40:33;;;;;;;6.93;3.07;;;;;;;7.22;100.00;95694.34;5064391;28;20871;-76
2022/12/24 03:42:59;;;;;;;10.17;3.13;;;;;;;7.20;100.00;95690.50;5062333;28;20445;-75
2022/12/24 03:45:26;;;;;;;5.93;2.67;;;;;;;7.34;100.00;95718.06;5073636;28;20936;-74
2022/12/24 03:47:53;;;;;;;2.83;1.90;;;;;;;7.19;100.00;95699.47;5062965;28;20768;-76
2022/12/24 03:50:19;;;;;;;12.50;2.87;;;;;;;7.33;100.00;95736.78;5074673;28;20958;-75
2022/12/24 03:52:46;;;;;;;4.53;2.10;;;;;;;7.22;100.00;95720.66;5062335;28;21054;-75
2022/12/24 03:55:13;;;;;;;3.20;2.20;;;;;;;7.06;100.00;95702.00;5064653;28;20940;-75
2022/12/24 03:57:39;;;;;;;7.67;2.60;;;;;;;7.25;100.00;95740.28;5073595;28;20447;-76
2022/12/24 04:00:07;;;;;;;9.53;2.70;;;;;;;7.27;100.00;95748.59;5085527;28;20549;-76
2022/12/24 04:02:40;;;;;;;4.03;2.30;;;;;;;7.09;100.00;95740.81;5060027;28;20543;-76
2022/12/24 04:05:15;;;;;;;3.10;1.67;;;;;;;7.24;100.00;95762.38;5084511;28;20503;-75
2022/12/24 04:07:41;;;;;;;4.80;2.67;;;;;;;6.97;100.00;95730.22;5094422;28;20421;-74
2022/12/24 04:10:09;;;;;;;10.30;2.47;;;;;;;6.96;100.00;95723.44;5061584;28;20421;-76
2022/12/24 04:12:36;;;;;;;6.67;2.23;;;;;;;7.06;100.00;95751.94;5070492;28;20441;-76
2022/12/24 04:15:03;;;;;;;8.90;2.90;;;;;;;7.05;100.00;95783.81;5071955;28;20424;-76
2022/12/24 04:17:30;;;;;;;14.13;3.90;;;;;;;7.02;100.00;95766.06;5058321;28;20507;-76
2022/12/24 04:19:57;;;;;;;8.20;2.90;;;;;;;6.30;100.00;95690.78;5072122;28;20524;-76
2022/12/24 04:22:24;;;;;;;10.27;3.07;;;;;;;7.02;100.00;95782.59;5076305;28;20485;-76
2022/12/24 04:24:50;;;;;;;3.23;2.10;;;;;;;6.84;100.00;95769.84;5087596;28;20507;-76
2022/12/24 04:27:17;;;;;;;6.17;2.33;;;;;;;6.69;100.00;95747.50;5082218;28;20508;-76
2022/12/24 04:29:44;;;;;;;8.83;3.17;;;;;;;6.79;100.00;95763.66;5082899;28;20504;-76
2022/12/24 04:32:10;;;;;;;8.53;2.60;;;;;;;7.10;100.00;95797.56;5069822;28;20452;-76
2022/12/24 04:34:37;;;;;;;10.17;2.37;;;;;;;7.14;100.00;95794.28;5081017;28;20440;-76
2022/12/24 04:37:04;;;;;;;6.13;2.63;;;;;;;7.01;100.00;95775.03;5064855;28;20499;-76
2022/12/24 04:39:31;;;;;;;6.63;2.23;;;;;;;6.93;100.00;95754.81;5073896;28;20459;-75
2022/12/24 04:41:58;;;;;;;7.23;3.20;;;;;;;7.13;100.00;95785.63;5070033;28;20428;-76
2022/12/24 04:44:25;;;;;;;10.90;4.00;;;;;;;6.99;100.00;95764.81;5080630;28;20472;-76
2022/12/24 04:46:51;;;;;;;7.30;2.03;;;;;;;6.93;100.00;95755.56;5087122;28;20462;-75
2022/12/24 04:49:18;;;;;;;7.50;2.33;;;;;;;6.79;100.00;95742.66;5062172;28;20595;-76
2022/12/24 04:51:45;;;;;;;10.53;2.97;;;;;;;6.93;100.00;95770.56;5062511;28;20443;-76
2022/12/24 04:54:11;;;;;;;4.70;2.03;;;;;;;6.95;100.00;95789.44;5059001;28;20470;-76
2022/12/24 04:56:38;;;;;;;15.40;2.63;;;;;;;6.91;100.00;95789.28;5066639;28;20464;-76
2022/12/24 04:59:05;;;;;;;10.60;2.27;;;;;;;6.89;100.00;95788.06;5071939;28;20455;-76
2022/12/24 05:01:32;;;;;;;11.73;2.20;;;;;;;6.73;100.00;95772.03;5075906;28;20456;-75
2022/12/24 05:03:59;;;;;;;6.40;2.40;;;;;;;6.65;100.00;95775.47;5075994;28;20464;-75
2022/12/24 05:06:29;;;;;;;9.70;2.43;;;;;;;6.71;100.00;95790.75;5079219;28;20469;-75
2022/12/24 05:08:57;;;;;;;7.63;3.03;;;;;;;6.57;100.00;95765.78;5064584;28;20460;-76
2022/12/24 05:11:25;;;;;;;7.17;2.20;;;;;;;6.60;100.00;95778.28;5083743;28;20471;-76
2022/12/24 05:13:51;;;;;;;7.73;2.50;;;;;;;6.47;100.00;95767.66;5074128;28;20449;-75
2022/12/24 05:16:20;;;;;;;4.47;2.30;;;;;;;6.58;100.00;95796.19;5074288;28;20815;-76
2022/12/24 05:18:47;;;;;;;6.47;3.70;;;;;;;6.64;100.00;95816.72;5080323;28;20448;-76
2022/12/24 05:21:18;;;;;;;6.70;3.00;;;;;;;6.72;100.00;95817.78;5080081;28;20516;-76
2022/12/24 05:26:33;;;;;;;9.53;2.70;;;;;;;6.60;100.00;95810.56;5064447;28;20433;-75
2022/12/24 05:29:02;;;;;;;5.50;2.60;;;;;;;6.77;100.00;95839.41;5052532;28;20425;-75
2022/12/24 05:31:32;;;;;;;6.03;3.17;;;;;;;6.67;100.00;95825.81;5058880;28;20789;-76
2022/12/24 05:33:59;;;;;;;6.77;2.87;;;;;;;6.60;100.00;95807.16;5074711;28;20456;-75
2022/12/24 05:36:26;;;;;;;6.60;2.27;;;;;;;6.64;100.00;95816.72;5079538;28;20451;-76
2022/12/24 05:38:53;;;;;;;7.43;2.70;;;;;;;6.63;100.00;95811.78;5053748;28;20941;-76
2022/12/24 05:41:20;;;;;;;5.00;2.13;;;;;;;6.64;100.00;95823.81;5076272;28;20524;-76
2022/12/24 05:43:47;;;;;;;7.80;2.30;;;;;;;6.65;100.00;95810.38;5086586;28;20515;-76
2022/12/24 05:46:16;;;;;;;7.93;3.10;;;;;;;6.84;100.00;95851.31;5063489;28;20531;-76
2022/12/24 05:48:43;;;;;;;14.00;2.50;;;;;;;6.87;100.00;95858.53;5080421;28;20924;-76
2022/12/24 05:51:12;;;;;;;5.43;2.37;;;;;;;6.84;100.00;95864.44;5062910;28;20428;-76
2022/12/24 05:53:39;;;;;;;5.90;2.63;;;;;;;6.72;100.00;95844.06;5082156;28;20476;-76
2022/12/24 05:56:10;;;;;;;7.13;2.53;;;;;;;6.85;100.00;95873.84;5084352;28;20492;-76
2022/12/24 05:58:39;;;;;;;8.43;2.40;;;;;;;6.86;100.00;95876.16;5072270;28;20458;-75
2022/12/24 06:01:07;;;;;;;7.73;2.47;;;;;;;6.89;100.00;95877.41;5094483;28;21231;-76
2022/12/24 06:03:34;;;;;;;8.00;3.40;;;;;;;6.78;100.00;95877.72;5080230;28;20466;-76
2022/12/24 06:06:07;;;;;;;8.77;3.33;;;;;;;6.86;100.00;95891.16;5069970;28;20523;-75
2022/12/24 06:08:35;;;;;;;13.33;3.17;;;;;;;6.79;100.00;95873.22;5068265;28;20444;-76
2022/12/24 06:11:04;;;;;;;10.57;4.10;;;;;;;6.88;100.00;95897.66;5066739;28;20424;-75
2022/12/24 06:13:32;;;;;;;6.90;2.80;;;;;;;6.85;100.00;95893.03;5087285;28;20444;-75
2022/12/24 06:16:00;;;;;;;5.47;2.20;;;;;;;6.90;100.00;95890.22;5081349;28;20590;-76
2022/12/24 06:18:32;;;;;;;10.67;2.70;;;;;;;6.85;100.00;95887.75;5070815;28;20463;-75
2022/12/24 06:20:59;;;;;;;14.03;2.53;;;;;;;6.73;100.00;95871.88;5082643;28;20484;-76
2022/12/24 06:23:29;;;;;;;10.73;2.20;;;;;;;6.73;100.00;95877.13;5086661;28;20463;-75
2022/12/24 06:25:59;;;;;;;8.07;2.03;;;;;;;6.60;100.00;95849.94;5083617;28;20471;-75
2022/12/24 06:28:27;;;;;;;3.63;2.10;;;;;;;6.90;100.00;95918.34;5070676;28;20434;-75
2022/12/24 06:30:54;;;;;;;5.03;2.50;;;;;;;6.76;100.00;95894.88;5081446;28;20438;-75
2022/12/24 06:33:28;;;;;;;8.33;2.93;;;;;;;6.87;100.00;95917.13;5055626;28;20463;-76
2022/12/24 06:35:54;;;;;;;5.20;2.30;;;;;;;6.71;100.00;95901.09;5083721;28;20500;-76
2022/12/24 06:38:21;;;;;;;8.50;3.17;;;;;;;6.91;100.00;95920.66;5069800;28;20475;-75
2022/12/24 06:40:48;;;;;;;8.93;2.57;;;;;;;6.70;100.00;95898.78;5074763;28;20536;-76
2022/12/24 06:43:14;;;;;;;9.97;2.57;;;;;;;6.95;100.00;95926.09;5061416;28;20465;-75
2022/12/24 06:45:45;;;;;;;9.60;3.33;;;;;;;6.95;100.00;95933.97;5075158;28;20432;-75
2022/12/24 06:48:14;;;;;;;7.13;2.80;;;;;;;6.68;100.00;95895.69;5069027;28;20444;-75
2022/12/24 06:50:42;;;;;;;4.13;1.97;;;;;;;6.90;100.00;95934.88;5077389;28;20433;-75
2022/12/24 06:53:09;;;;;;;8.47;3.47;;;;;;;6.69;100.00;95916.38;5084597;28;20447;-76
2022/12/24 06:55:36;;;;;;;8.07;2.00;;;;;;;6.74;100.00;95916.22;5071845;28;20433;-76
2022/12/24 06:58:03;;;;;;;5.70;2.33;;;;;;;6.60;100.00;95906.97;5083764;28;20432;-76
2022/12/24 07:00:29;;;;;;;5.30;2.27;;;;;;;6.87;100.00;95945.25;5096799;28;21180;-76
2022/12/24 07:02:56;;;;;;;6.10;2.60;;;;;;;6.75;100.00;95936.16;5084470;28;20456;-76
2022/12/24 07:05:23;;;;;;;9.20;2.80;;;;;;;6.88;100.00;95941.53;5089169;28;20437;-76
2022/12/24 07:07:50;;;;;;;4.33;2.20;;;;;;;6.77;100.00;95927.94;5096289;28;20436;-76
2022/12/24 07:10:18;;;;;;;5.73;2.57;;;;;;;6.71;100.00;95918.69;5083068;28;20424;-76
2022/12/24 07:12:45;;;;;;;9.27;2.93;;;;;;;6.71;100.00;95926.56;5072213;28;20448;-76
2022/12/24 07:15:13;;;;;;;10.80;2.73;;;;;;;6.73;100.00;95924.41;5068175;28;20981;-76
2022/12/24 07:17:39;;;;;;;6.73;2.60;;;;;;;6.62;100.00;95918.69;5074999;28;20953;-76
2022/12/24 07:20:10;;;;;;;10.77;4.30;;;;;;;6.76;100.00;95942.94;5076544;28;20551;-76
2022/12/24 07:22:37;;;;;;;8.73;3.90;;;;;;;6.67;100.00;95941.41;5072181;28;21011;-75
2022/12/24 07:25:04;;;;;;;10.17;2.97;;;;;;;6.61;100.00;95937.41;5080535;28;20444;-76
2022/12/24 07:27:31;;;;;;;6.97;2.97;;;;;;;6.68;100.00;95942.97;5063418;28;20986;-76
2022/12/24 07:29:58;;;;;;;11.20;2.73;;;;;;;6.73;100.00;95951.44;5060035;28;20533;-76
2022/12/24 07:32:24;;;;;;;6.73;2.80;;;;;;;6.79;100.00;95965.19;5066450;28;20456;-76
2022/12/24 07:34:51;;;;;;;4.50;2.60;;;;;;;6.58;100.00;95944.03;5068579;28;20431;-76
2022/12/24 07:37:17;;;;;;;7.70;2.50;;;;;;;6.77;100.00;95976.00;5071327;28;20467;-76
2022/12/24 07:39:44;;;;;;;7.43;3.70;;;;;;;6.62;100.00;95959.94;5056796;28;20811;-76
2022/12/24 07:42:11;;;;;;;6.67;3.37;;;;;;;6.63;100.00;95966.75;5070860;28;20475;-76
2022/12/24 07:44:38;;;;;;;15.00;7.83;;;;;;;6.67;100.00;95967.66;5055874;28;20452;-76
2022/12/24 07:47:05;;;;;;;7.43;3.30;;;;;;;6.70;100.00;95972.31;5044859;28;20437;-76
2022/12/24 07:49:31;;;;;;;5.90;2.20;;;;;;;6.82;100.00;95980.34;5067775;28;20470;-76
2022/12/24 07:51:58;;;;;;;8.87;3.77;;;;;;;6.43;100.00;95920.88;5080241;28;20420;-76
2022/12/24 07:54:25;;;;;;;6.17;3.37;;;;;;;6.83;100.00;95992.41;5071197;28;20454;-76
2022/12/24 07:56:51;;;;;;;8.63;3.30;;;;;;;6.68;100.00;95972.63;5071314;28;20424;-76
2022/12/24 07:59:19;;;;;;;8.43;5.50;;;;;;;6.87;100.00;95995.19;5074076;28;20433;-76
2022/12/24 08:01:46;;;;;;;8.93;3.87;;;;;;;6.52;100.00;95946.03;5080528;28;20463;-76
2022/12/24 08:04:13;;;;;;;6.03;2.80;;;;;;;6.84;100.00;95982.66;5065522;28;20996;-76
2022/12/24 08:06:40;;;;;;;27.57;16.97;;;;;;;6.71;100.00;95968.63;5060780;28;20460;-76
2022/12/24 08:09:06;;;;;;;13.83;3.97;;;;;;;6.65;100.00;95965.34;5059860;28;20444;-76
2022/12/24 08:11:33;;;;;;;9.23;3.67;;;;;;;6.78;100.00;95989.91;5057012;28;20440;-76
2022/12/24 08:14:00;;;;;;;13.20;5.30;;;;;;;6.89;100.00;96006.91;5056270;28;20581;-76
2022/12/24 08:16:26;;;;;;;7.57;4.50;;;;;;;6.93;100.00;96005.22;5062974;28;20417;-76
2022/12/24 08:18:53;;;;;;;7.20;3.53;;;;;;;6.90;100.00;96012.94;5071206;28;20439;-76
2022/12/24 08:21:20;;;;;;;9.90;4.50;;;;;;;6.66;100.00;95987.91;5056100;28;20562;-76
2022/12/24 08:23:47;;;;;;;5.40;2.93;;;;;;;6.76;100.00;95992.84;5072982;28;20468;-76
2022/12/24 08:26:13;;;;;;;6.37;3.33;;;;;;;6.66;100.00;95981.88;5082214;28;20537;-75
2022/12/24 08:28:40;;;;;;;9.50;4.10;;;;;;;6.92;100.00;96014.19;5059219;28;20517;-77
2022/12/24 08:31:07;;;;;;;4.70;2.37;;;;;;;7.00;100.00;96038.94;5064242;28;20517;-77
2022/12/24 08:33:34;;;;;;;7.03;5.73;;;;;;;6.84;100.00;96017.59;5058632;28;20460;-78
2022/12/24 08:36:01;;;;;;;10.13;6.83;;;;;;;6.94;100.00;96029.63;5075818;28;20471;-77
2022/12/24 08:38:28;;;;;;;6.93;2.63;;;;;;;6.88;100.00;96020.38;5054078;28;21070;-78
2022/12/24 08:40:55;;;;;;;6.27;4.90;;;;;;;7.02;100.00;96039.38;5068352;28;20533;-77
2022/12/24 08:43:24;;;;;;;10.90;3.07;;;;;;;6.90;100.00;96023.47;5075146;28;20464;-77
2022/12/24 08:45:51;;;;;;;9.77;4.10;;;;;;;7.04;100.00;96039.84;5061365;28;20454;-77
2022/12/24 08:48:18;;;;;;;6.00;4.10;;;;;;;6.80;100.00;96012.16;5075987;28;20459;-78
2022/12/24 08:50:45;;;;;;;6.27;3.00;;;;;;;6.58;100.00;95977.41;5072813;28;20443;-76
2022/12/24 08:53:12;;;;;;;6.53;3.37;;;;;;;6.96;100.00;96046.66;5072320;28;20903;-76
2022/12/24 08:55:38;;;;;;;11.23;4.70;;;;;;;6.87;100.00;96031.97;5062596;28;20444;-75
2022/12/24 08:58:05;;;;;;;7.70;3.23;;;;;;;6.88;100.00;96038.78;5068814;28;20421;-77
2022/12/24 09:00:32;;;;;;;11.77;3.33;;;;;;;6.89;100.00;96041.09;5083894;28;20487;-77
2022/12/24 09:02:58;;;;;;;10.20;3.70;;;;;;;7.04;100.00;96066.13;5074775;28;20462;-77
2022/12/24 09:05:26;;;;;;;13.07;3.07;;;;;;;6.86;100.00;96040.94;5076518;28;21008;-78
2022/12/24 09:07:52;;;;;;;7.03;3.57;;;;;;;7.09;100.00;96076.50;5074952;28;20424;-77
2022/12/24 09:10:19;;;;;;;12.80;3.50;;;;;;;6.91;100.00;96043.41;5080731;28;20444;-78
2022/12/24 09:12:46;;;;;;;11.37;4.27;;;;;;;7.07;100.00;96049.72;5077282;28;20452;-77
2022/12/24 09:15:13;;;;;;;5.83;3.00;;;;;;;7.08;100.00;96052.06;5043237;28;21148;-78
2022/12/24 09:17:40;;;;;;;8.13;3.07;;;;;;;7.19;100.00;96078.03;5068292;28;20428;-77
2022/12/24 09:20:08;;;;;;;4.77;2.07;;;;;;;7.19;100.00;96068.28;5064919;28;20875;-76
2022/12/24 09:22:36;;;;;;;5.53;2.60;;;;;;;7.22;100.00;96085.31;5061610;28;20501;-77
2022/12/24 09:25:05;;;;;;;8.53;3.73;;;;;;;6.97;100.00;96050.06;5069886;28;20434;-77
2022/12/24 09:27:32;;;;;;;9.73;3.27;;;;;;;7.22;100.00;96093.97;5060900;28;20497;-77
2022/12/24 09:29:59;;;;;;;15.57;3.40;;;;;;;7.06;100.00;96077.88;5058590;28;20478;-77
2022/12/24 09:32:26;;;;;;;6.90;3.10;;;;;;;7.24;100.00;96091.03;5044974;28;20552;-77
2022/12/24 09:34:53;;;;;;;13.40;3.10;;;;;;;7.26;100.00;96096.75;5065950;28;20437;-77
2022/12/24 09:37:19;;;;;;;10.87;4.40;;;;;;;7.20;100.00;96090.09;5063288;28;20520;-77
2022/12/24 09:39:46;;;;;;;13.10;5.23;;;;;;;7.24;100.00;96096.28;5041521;28;20490;-77
2022/12/24 09:42:37;;;;;;;10.73;3.90;;;;;;;7.25;100.00;96093.34;5062055;28;20421;-77
2022/12/24 09:45:40;;;;;;;13.80;4.07;;;;;;;7.36;100.00;96109.59;5041862;28;20436;-77
2022/12/24 09:48:17;;;;;;;6.00;3.70;;;;;;;7.37;100.00;96105.88;5065553;28;20409;-77
2022/12/24 09:51:04;;;;;;;9.13;4.37;;;;;;;7.39;100.00;96116.88;5065194;28;20408;-77
2022/12/24 09:53:47;;;;;;;7.40;4.23;;;;;;;7.15;100.00;96079.75;5030840;28;20461;-77
2022/12/24 09:56:22;;;;;;;6.13;2.10;;;;;;;7.16;100.00;96076.81;5053430;28;20409;-77
2022/12/24 09:59:21;;;;;;;14.10;4.57;;;;;;;7.41;100.00;96122.56;5066097;28;20854;-77
2022/12/24 10:01:53;;;;;;;8.63;3.87;;;;;;;7.25;100.00;96090.72;5056064;28;20494;-77
2022/12/24 10:04:25;;;;;;;5.60;2.80;;;;;;;7.40;100.00;96127.06;5065844;28;20483;-78
2022/12/24 10:07:15;;;;;;;11.30;4.17;;;;;;;7.25;100.00;96103.09;5047394;28;20876;-77
2022/12/24 10:10:12;;;;;;;9.70;3.20;;;;;;;7.17;100.00;96094.13;5072245;28;20467;-77
2022/12/24 10:13:05;;;;;;;11.90;4.63;;;;;;;7.33;100.00;96121.47;5064346;28;20498;-77
2022/12/24 10:15:59;;;;;;;10.00;3.40;;;;;;;7.34;100.00;96122.25;5033566;28;20480;-77
2022/12/24 10:18:44;;;;;;;11.23;4.23;;;;;;;6.88;100.00;96060.56;5058859;28;20463;-78
2022/12/24 10:21:33;;;;;;;15.97;6.87;;;;;;;7.29;100.00;96104.78;5054285;28;21086;-78
2022/12/24 10:24:15;;;;;;;17.80;9.47;;;;;;;7.40;100.00;96121.81;5070204;28;20472;-77
2022/12/24 10:26:52;;;;;;;28.37;16.67;;;;;;;7.40;100.00;96113.91;5056848;28;20955;-77
2022/12/24 10:29:30;;;;;;;34.37;18.53;;;;;;;7.21;100.00;96071.41;5060924;28;20433;-77
2022/12/24 10:32:06;;;;;;;15.60;8.77;;;;;;;7.59;100.00;96112.81;5068018;28;20439;-77
2022/12/24 10:34:39;;;;;;;18.80;8.67;;;;;;;7.64;100.00;96123.19;5057497;28;20444;-77
2022/12/24 10:37:09;;;;;;;11.53;3.87;;;;;;;7.50;100.00;96078.63;5057015;28;20924;-77
2022/12/24 10:39:36;;;;;;;15.03;4.27;;;;;;;7.52;100.00;96073.06;5040312;28;20469;-77
2022/12/24 10:42:04;;;;;;;15.07;5.10;;;;;;;7.50;100.00;96072.59;5065900;28;20464;-77
2022/12/24 10:44:33;;;;;;;11.50;5.40;;;;;;;7.86;100.00;96122.97;5070460;28;20435;-77
2022/12/24 10:47:00;;;;;;;10.57;4.87;;;;;;;7.78;100.00;96101.97;5053492;28;20472;-77
2022/12/24 10:49:51;;;;;;;21.00;4.60;;;;;;;8.03;100.00;96126.66;5071499;28;20424;-76
2022/12/24 10:52:21;;;;;;;16.07;4.50;;;;;;;7.92;100.00;96100.69;5041745;28;20444;-76
2022/12/24 10:55:06;;;;;;;14.07;6.00;;;;;;;8.11;100.00;96115.31;5064947;28;20425;-76
2022/12/24 10:57:34;;;;;;;10.50;4.37;;;;;;;8.14;100.00;96119.94;5064654;28;20432;-76
2022/12/24 11:00:00;;;;;;;14.47;4.33;;;;;;;7.99;100.00;96095.69;5063319;28;20424;-77
2022/12/24 11:02:38;;;;;;;13.40;3.70;;;;;;;8.22;100.00;96132.34;5056315;28;20468;-76
2022/12/24 11:05:25;;;;;;;13.23;4.90;;;;;;;8.25;100.00;96129.84;5071352;28;20412;-77
2022/12/24 11:08:12;;;;;;;6.33;3.30;;;;;;;8.13;100.00;96118.41;5021506;28;20520;-77
2022/12/24 11:10:52;;;;;;;5.83;3.47;;;;;;;8.22;100.00;96135.72;5055117;28;20841;-77
2022/12/24 11:13:25;;;;;;;9.47;3.97;;;;;;;8.28;100.00;96139.75;5071736;28;20945;-78
2022/12/24 11:16:11;;;;;;;11.27;3.43;;;;;;;8.30;100.00;96142.06;5044054;28;20812;-78
2022/12/24 11:18:45;;;;;;;8.90;3.43;;;;;;;8.36;100.00;96148.72;5068142;28;20920;-78
2022/12/24 11:21:26;;;;;;;12.47;3.90;;;;;;;8.42;100.00;96147.47;5062034;28;21066;-78
2022/12/24 11:23:59;;;;;;;16.57;3.90;;;;;;;8.38;100.00;96143.91;5056904;28;20464;-78
2022/12/24 11:26:29;;;;;;;8.93;3.20;;;;;;;8.52;100.00;96155.00;5059379;28;20872;-77
2022/12/24 11:29:03;;;;;;;8.00;4.37;;;;;;;8.33;100.00;96120.38;5041476;28;20428;-78
2022/12/24 11:31:31;;;;;;;7.87;2.93;;;;;;;8.60;100.00;96161.34;5056389;28;20466;-79
2022/12/24 11:33:58;;;;;;;8.47;3.10;;;;;;;8.28;100.00;96105.53;5059891;28;20448;-78
2022/12/24 11:36:26;;;;;;;7.77;3.50;;;;;;;8.63;100.00;96163.34;5070488;28;20477;-79
2022/12/24 11:38:56;;;;;;;8.37;4.17;;;;;;;8.46;100.00;96134.44;5061984;28;20442;-78
2022/12/24 11:41:25;;;;;;;10.20;3.20;;;;;;;8.56;100.00;96140.13;5058511;28;20456;-78
2022/12/24 11:44:02;;;;;;;9.83;2.93;;;;;;;8.67;100.00;96153.69;5077042;28;20448;-78
2022/12/24 11:46:41;;;;;;;17.77;5.63;;;;;;;8.63;100.00;96147.53;5057455;28;20807;-77
2022/12/24 11:49:11;;;;;;;12.03;3.87;;;;;;;8.66;100.00;96160.06;5060621;28;20785;-78
2022/12/24 11:51:47;;;;;;;5.67;3.27;;;;;;;8.48;100.00;96116.44;5075405;28;20501;-78
2022/12/24 11:54:25;;;;;;;9.90;2.80;;;;;;;8.65;100.00;96155.88;5075416;28;20493;-78
2022/12/24 11:56:56;;;;;;;14.10;3.53;;;;;;;8.59;100.00;96144.00;5074237;28;20443;-77